If you wish to contribute or participate in the discussions about articles you are invited to join SKYbrary as a registered user

 Actions

Orange-Caritat (BA 115) Air Base

From SKYbrary Wiki

LFMO
Airport
ICAO: LFMO
Summary
Name Orange-Caritat (BA 115) Air Base
Region Europe
Territory France FR.gif
Location , Provence-Alpes-Cote d'Azur
Serving Orange
Elevation 60.046 m
197 ft
197 ft60.046 m
Type medium airport
Coordinates 44° 8' 25.73" N, 4° 52' 0.18" E
Runways
Designator Length Width Surface ROPS
14/32 0 m0 ft
0 m0 ft
UNK /
15/33 2411 m7,910.105 ft
60 m196.85 ft
CON /


METAR
Observation LFMO 182330Z AUTO 00000KT 9999 BKN074 20/18 Q1016 TEMPO 3000 BR BECMG BKN014
Station Orange
Date/Time 18 August 2019 23:30:00
Wind direction
Wind speed 00 kts
Lowest cloud amount broken clouds
Temperature 20°C
Dew point 18°C
Humidity 88%
QNH 1016 hPa
Weather condition n/a